Dublin, Ireland
Current Conditions -  °F | °C
As of 1:00 PM on Thursday 27 Nov 2014 (Local Time) from EIDW Reporting Station
Scattered Clouds Scattered Clouds  
Wind Chill:   Ceiling: Unl
Heat Index:   Visibility: 6mi
Dew Point:   Wind: 6mph
Humidity: 82%   Direction: 70°ENE
Pressure: 29.5"   Gusts: NA
Location:  53.33°N, 6.25°W
Report Text: EIDW 271300Z 07005KT 050V110 9999 FEW018 SCT050 09/06 Q0999 NOSIG
Loading
Personal Weather Stations






























Interactive Weather Map New forecast layout! Learn more

10-Day Weather Forecast

Advertisements
Track Severe Weather on mobile